Flugplatz Everswinkel (UL)

Hier findest Du alle Informationen zum Flugplatz Everswinkel (UL).

Informationen für Piloten zum Flugplatz Everswinkel

Hier findest Du alle relevanten Informationen, die Du als Pilot benötigst, um Everswinkel anzufliegen.

Flugplatz: Everswinkel ICAO-Code: UL Flugplatz
Frequenz Turm: 123,425 Mhz GAFOR Gebiet: 32
Frequenz Ground: 123,425 Mhz Mogas: nein
Platzrunde: N 1000 ft Landegebühr: 0 €
Platzhöhe: Sunrise: 05:12 Uhr UTC
Pisten: 07/25 - 200(400) m x 20 m, GRAS Sunset: 17:30 Uhr UTC

Mitglieder, die in Everswinkel fliegen

Flugwetter am Flugplatz Everswinkel

Die METAR Information stammen aus EDDG (29.76 km entfernt).

METAR Code:
2020/09/14 10:50
EDDG 141050Z 14004KT 070V210 CAVOK 27/14 Q1025 NOSIG

Flugschulen am Flugplatz Everswinkel

Am Flugplatz Everswinkel gibt es leider keine Flugschule.

Benachbarte Flugplätze und Flugschulen

Es gibt 18 weitere Flugplätze in einem Umkreis von 50 km um den Flugplatz Everswinkel.

Jetzt anmelden

Passwort vergessen

Umfrage Archiv

Wären Rettungsgeräte keine Pflicht mehr, würdet Ihr Euer UL trotzdem mit einem ausstatten?

Ja
85.5 %
Nein
14.5 %
Stimmen: 317 | Diskussion
Anzeige: Roland Aircraft
Statistik Alle Mitglieder

Aktuell sind 40 Besucher online.

Anzeige: VFR Sprechfunk Simulator


Anzeige: Pocket FMS